Aérodrome :
LOGIN :

S'inscrire | Disclaimer

   EN    FR    IT 

 










Légende :    VFR   VFR Marginal   IFR   IFR Intensif   IFR Très Intensif
Visi : 
Plafond : 
>= 8 km
>= 3000ft
5 à 8 km
1000 à 3000 ft
1500m à 5 km
500 à 1000 ft
800 à 1500m
200 à 500 ft
< 800m
< 200 ft
Symboles :   Orages  Brouillard  Fortes neiges  Fortes précipitations  Vent > 20 kt
SIGMETs :   Divers  Orages  Givrage  Turbulence  Onde Orograph.  Cendres Volcan.







- Altitude de l'aérodrome : 1548 ft


LKNA - Náměšť Air Base

DERNIER METAR :
  • 101927Z 30013KT 3000 -SN FEW004 SCT019 BKN024 M00/M02 Q1012 RMK YLO

METARs EXPIRÉS :
  • 101926Z 30014KT 9999 -SN FEW004 SCT019 BKN024 M00/M02 Q1012 RMK BLU
  • 101902Z 26014KT 4000 -SN FEW004 BKN037 00/M02 Q1012 RMK GRN
  • 101900Z 27013KT 9999 -SN FEW034 01/M03 Q1012 NOSIG RMK BLU BLU
  • 101800Z 27012KT CAVOK 00/M03 Q1012 NOSIG
  • 101700Z 28016KT 9999 FEW046 00/M02 Q1012 NOSIG RMK BLU BLU

TAF TAF LKNA
Valide du 10 à 18h jusqu'au 11 à 18h UTC


101700Z 1018/1118 39012KT 9999 SCT025
PROB40
TEMPO 1018/1103 31018KT 3000 SHSN BKN010
TEMPO 1103/1118 30016G28KT 1100 SN BKN004 OVC006
Pas de NOTAMs connus pour ce terrain.



MET'MAP, la Météo Aéronautique d'un coup d'oeil ! - Copyright ORBIFLY Décembre 2007 - Disclaimer

ORBIFLY MET'MAP TEAM :

Programmation & Développement : Alexandra Zaïnal
Conception & Développement : Baudouin d'Aumeries
Co-Programmation & Développement : Marc-Olivier Méhu
Soutien technique & logistique : Manuel Goepfert

Contact : metmap@orbifly.com




SOURCES & CREDITS :

   NOAA